Aérodrome :
LOGIN :

S'inscrire | Disclaimer

   EN    FR    IT 

 










Légende :    VFR   VFR Marginal   IFR   IFR Intensif   IFR Très Intensif
Visi : 
Plafond : 
>= 8 km
>= 3000ft
5 à 8 km
1000 à 3000 ft
1500m à 5 km
500 à 1000 ft
800 à 1500m
200 à 500 ft
< 800m
< 200 ft
Symboles :   Orages  Brouillard  Fortes neiges  Fortes précipitations  Vent > 20 kt
SIGMETs :   Divers  Orages  Givrage  Turbulence  Onde Orograph.  Cendres Volcan.







- Altitude de l'aérodrome : 821 ft
- Code IATA : LYS
- Voir les cartes d'approche


LFLL - Lyon St Exupéry / Satolas

DERNIER METAR :
  • 250730Z 35011KT 9000 SCT019 BKN056 09/04 Q1023 NOSIG

METARs EXPIRÉS :
  • 250700Z 35011KT 8000 BKN018 08/04 Q1023 NOSIG
  • 250630Z 35010KT 8000 BKN018 08/04 Q1023 NOSIG
  • 250600Z 35010KT 8000 BKN020 BKN058 08/04 Q1023 NOSIG
  • 250530Z 35010KT 7000 SCT020 BKN054 08/04 Q1023 NOSIG
  • 250500Z 35011KT 7000 FEW020 BKN054 08/04 Q1023 NOSIG

TAF AMD TAF LFLL
Valide du 25 à 06h jusqu'au 26 à 12h UTC


250528Z 2506/2612 36012KT 9999 BKN040
TEMPO 2506/2509 6000 SCT020
BECMG 2508/2510 CAVOK
TEMPO 2510/2605 36015G25KT
PROB40
TEMPO 2512/2520 36020G30KT
TEMPO 2604/2608 BKN020
BECMG 2603/2605 36020G30KT
Pas de NOTAMs connus pour ce terrain.
2 SIGMETs publiés pour la FIR Marseille (LFMM) :
 
Turbulence forte
LFMM SIGMET 2 VALID 250900/251200 LFPW
LFMM MARSEILLE FIR/UIR SEV TURB FCST WI N4245 E00230 - N4345 E00245 - N4345 E00315 - N4315 E00300 - N4230 E00415 - N4215 E00330 - N4245 E00230 SFC/FL060 STNR INTSF=
Turbulence forte
LFMM SIGMET 1 VALID 250900/251200 LFPW
LFMM MARSEILLE FIR/UIR SEV TURB FCST WI N4415 E00430 - N4445 E00345 - N4500 E00415 - N4445 E00600 - N4430 E00600 - N4415 E00500 - N4330 E00515 - N4330 E00445 - N4415 E00430 SFC/FL060 STNR INTSF=



MET'MAP, la Météo Aéronautique d'un coup d'oeil ! - Copyright ORBIFLY Décembre 2007 - Disclaimer

ORBIFLY MET'MAP TEAM :

Programmation & Développement : Alexandra Zaïnal
Conception & Développement : Baudouin d'Aumeries
Co-Programmation & Développement : Marc-Olivier Méhu
Soutien technique & logistique : Manuel Goepfert

Contact : metmap@orbifly.com




SOURCES & CREDITS :

   NOAA